»·PEaware :: N67657 KBLH-KSNA

N67657 :: KBLH-KSNA

FLIGHT INFORMATION

Flight Status: Arrived
Operator: Privately registered:
United States
More flights under this callsign
Pilot: Tanner C. (11250)
Aircraft: Unknown
(C90)
More flights by this aircraft type
Origin: KBLH Blythe
United States
Destination: KSNA John Wayne-Orange Co
United States
More flights between these airports :: More routes between these airports
Route: +PSP KAYOH7
File this flight plan on PilotEdge
Remarks:
Altitude:
(Current/Filed)
16,000ft
Speed:
(Current/Filed)
300kts
Departed: 06-Jun-18 05:23 PM
Arrived: 06-Jun-18 06:16 PM
Distance/Time
Traveled:
157nm/0:53
Distance/Time
To Go:
Arrived

Flight Plot

Page will automatically refresh every two minutes.

Flight plan parsing failed; only flown route is shown


Map Options




Map Legend


Flown Route
Filed Route
Departure Airport
Arrival Airport
Navaid (VOR, NDB)
Fix

Horizontal Profiles

Position Reports

Time Latitude Longitude Heading Altitude Ground
Speed
06-Jun-18 17:08 33.614618 -114.712222 357 394ft 0kts
06-Jun-18 17:09 33.614618 -114.712222 357 394ft 0kts
06-Jun-18 17:10 33.614619 -114.712222 357 394ft 0kts
06-Jun-18 17:11 33.614619 -114.712222 357 394ft 0kts
06-Jun-18 17:12 33.614619 -114.712222 357 394ft 0kts
06-Jun-18 17:13 33.615172 -114.709339 91 394ft 24kts
06-Jun-18 17:14 33.615804 -114.706178 24 394ft 0kts
06-Jun-18 17:15 33.615805 -114.706177 24 394ft 0kts
06-Jun-18 17:16 33.615805 -114.706177 24 394ft 0kts
06-Jun-18 17:17 33.615805 -114.706177 24 394ft 0kts
06-Jun-18 17:18 33.615805 -114.706177 24 394ft 0kts
06-Jun-18 17:19 33.615805 -114.706177 24 394ft 0kts
06-Jun-18 17:20 33.615805 -114.706177 24 394ft 0kts
06-Jun-18 17:21 33.615805 -114.706177 24 394ft 0kts
06-Jun-18 17:22 33.616590 -114.709197 272 394ft 0kts
06-Jun-18 17:23 33.616981 -114.740293 260 1376ft 132kts
06-Jun-18 17:24 33.590323 -114.756866 150 3365ft 138kts
06-Jun-18 17:25 33.560999 -114.757609 266 5160ft 139kts
06-Jun-18 17:26 33.579717 -114.803523 287 6331ft 174kts
06-Jun-18 17:27 33.590847 -114.858952 280 7828ft 168kts
06-Jun-18 17:28 33.600749 -114.912092 280 9303ft 162kts
06-Jun-18 17:29 33.610141 -114.963298 279 10788ft 153kts
06-Jun-18 17:30 33.618881 -115.011215 279 12261ft 142kts
06-Jun-18 17:31 33.627564 -115.058818 278 13390ft 149kts
06-Jun-18 17:32 33.637942 -115.116456 278 14637ft 152kts
06-Jun-18 17:33 33.645619 -115.159038 278 15201ft 168kts
06-Jun-18 17:34 33.656102 -115.216984 279 15526ft 185kts
06-Jun-18 17:35 33.667392 -115.279467 279 15840ft 198kts
06-Jun-18 17:36 33.679378 -115.346093 279 15927ft 211kts
06-Jun-18 17:37 33.691943 -115.416094 279 15925ft 217kts
06-Jun-18 17:38 33.704619 -115.487000 279 15925ft 218kts
06-Jun-18 17:39 33.717349 -115.558500 279 15924ft 219kts
06-Jun-18 17:40 33.729964 -115.629619 279 15924ft 219kts
06-Jun-18 17:41 33.743142 -115.683165 289 15504ft 119kts
06-Jun-18 17:42 33.747195 -115.727953 277 15935ft 171kts
06-Jun-18 17:43 33.758837 -115.794320 279 15933ft 225kts
06-Jun-18 17:44 33.772319 -115.870479 279 15928ft 239kts
06-Jun-18 17:45 33.786130 -115.949327 279 15927ft 242kts
06-Jun-18 17:46 33.799932 -116.028619 279 15926ft 243kts
06-Jun-18 17:47 33.813562 -116.106820 278 16047ft 239kts
06-Jun-18 17:48 33.826992 -116.185236 279 16115ft 241kts
06-Jun-18 17:49 33.840127 -116.261545 279 16115ft 242kts
06-Jun-18 17:50 33.853677 -116.340656 279 16114ft 242kts
06-Jun-18 17:51 33.866982 -116.418663 279 16099ft 242kts
06-Jun-18 17:52 33.872064 -116.497395 271 16008ft 242kts
06-Jun-18 17:53 33.875857 -116.578021 271 16005ft 241kts
06-Jun-18 17:54 33.879388 -116.655036 270 16006ft 240kts
06-Jun-18 17:55 33.882779 -116.729702 270 15333ft 255kts
06-Jun-18 17:56 33.886739 -116.817543 271 13365ft 271kts
06-Jun-18 17:57 33.874774 -116.888778 247 13977ft 222kts
06-Jun-18 17:58 33.852578 -116.954646 247 14119ft 220kts
06-Jun-18 17:59 33.834182 -117.006507 248 14209ft 183kts
06-Jun-18 18:00 33.813361 -117.070017 247 14114ft 217kts
06-Jun-18 18:01 33.788261 -117.144455 247 12337ft 250kts
06-Jun-18 18:02 33.775054 -117.223906 269 10526ft 242kts
06-Jun-18 18:03 33.776044 -117.302373 270 9325ft 234kts
06-Jun-18 18:04 33.777447 -117.376335 269 9027ft 208kts
06-Jun-18 18:05 33.778103 -117.445656 269 9031ft 208kts
06-Jun-18 18:06 33.778713 -117.515960 269 9031ft 210kts
06-Jun-18 18:07 33.779281 -117.585165 269 9031ft 212kts
06-Jun-18 18:08 33.785314 -117.653201 278 8511ft 218kts
06-Jun-18 18:09 33.807482 -117.717226 336 6199ft 247kts
06-Jun-18 18:10 33.840784 -117.759879 240 4149ft 167kts
06-Jun-18 18:11 33.799788 -117.788540 210 2748ft 174kts
06-Jun-18 18:12 33.765159 -117.810875 210 1975ft 105kts
06-Jun-18 18:13 33.735386 -117.830951 209 1283ft 131kts
06-Jun-18 18:14 33.702923 -117.851374 211 516ft 134kts
06-Jun-18 18:15 33.673625 -117.870100 214 60ft 71kts
06-Jun-18 18:16 33.669079 -117.871534 131 60ft 1kts
06-Jun-18 18:17 33.666134 -117.873126 105 60ft 15kts
06-Jun-18 18:18 33.665986 -117.872823 139 60ft 0kts
06-Jun-18 18:19 33.665986 -117.872823 139 60ft 0kts
06-Jun-18 18:20 33.665986 -117.872823 139 60ft 0kts
06-Jun-18 18:21 33.665986 -117.872823 139 60ft 0kts
06-Jun-18 18:22 33.665986 -117.872823 139 60ft 0kts
06-Jun-18 18:23 33.665986 -117.872823 139 60ft 0kts
06-Jun-18 18:24 33.665986 -117.872823 139 60ft 0kts
06-Jun-18 18:25 33.665986 -117.872823 139 60ft 0kts
06-Jun-18 18:26 33.665986 -117.872823 139 60ft 0kts
06-Jun-18 18:27 33.679339 -117.862363 116 63ft 0kts
06-Jun-18 18:28 33.679335 -117.862354 116 64ft 0kts
06-Jun-18 18:29 33.679335 -117.862354 116 64ft 0kts

Navigation Log

Ident Type
Flight plan parsing failed, navigation log unavailable